Latest Weather Observations for Shark Bay Airport

IDW60801

Issued at 10:34 am WST Sunday 5 July 2015 (issued every 30 minutes, with the page automatically refreshed every 10 minutes)

About weather observations | Map of weather stations | Latest weather observations for WA | Other Formats
Station Details ID: 006105 Name: SHARK BAY AIRPORT Lat: -25.89 Lon: 113.58 Height: 33.8 m
Data from the previous 72 hours. | See also: Recent months for locations in Western Australia
Date/Time
WST
Temp
°C
App
Temp
°C
Dew
Point
Rel
Hum
%
Delta-T
°C
Wind Press
QNH
hPa
Press
MSL
hPa
Rain
since 9 am
mm
Dir
 
Spd
km/h
Gust
km/h
Spd
kts
Gust
kts
05/10:30am 20.9 18.3 13.1 61 4.4 E 19 26 10 14 1022.2 1022.2 0.0
05/10:00am 20.4 18.4 13.8 66 3.8 ESE 17 22 9 12 1022.3 1022.3 0.0
05/09:30am 19.0 16.4 13.2 69 3.3 E 19 26 10 14 1022.2 1022.2 0.0
05/09:00am 17.7 15.7 13.8 78 2.2 ESE 17 20 9 11 1021.9 1021.9 0.0
05/08:30am 16.2 14.8 13.3 83 1.6 ESE 13 17 7 9 1021.7 1021.7 0.0
05/08:00am 14.9 13.3 12.8 87 1.2 ESE 13 15 7 8 1021.5 1021.5 0.0
05/07:30am 13.4 11.4 11.6 89 1.0 SE 13 17 7 9 1021.3 1021.3 0.0
05/07:00am 12.9 11.1 11.0 88 1.0 SE 11 13 6 7 1021.3 1021.3 0.0
05/06:30am 13.3 11.3 11.5 89 1.0 SE 13 17 7 9 1021.2 1021.2 0.0
05/06:00am 13.5 11.2 11.9 90 0.9 SE 15 17 8 9 1020.9 1020.9 0.0
05/05:30am 13.2 11.6 11.6 90 0.9 SE 11 15 6 8 1020.7 1020.7 0.0
05/05:00am 13.2 11.6 11.4 89 1.0 SE 11 13 6 7 1020.5 1020.5 0.0
05/04:30am 13.9 12.2 12.3 90 0.9 SE 13 17 7 9 1020.5 1020.5 0.0
05/04:00am 13.6 11.8 12.2 91 0.8 SSE 13 17 7 9 1020.6 1020.6 0.0
05/03:30am 13.3 11.4 11.7 90 0.9 SSE 13 13 7 7 1020.7 1020.7 0.0
05/03:00am 13.5 11.2 11.9 90 0.9 SSE 15 17 8 9 1020.7 1020.7 0.0
05/02:30am 13.6 11.7 11.8 89 1.0 SSE 13 13 7 7 1020.8 1020.8 0.0
05/02:00am 14.0 12.6 12.2 89 1.0 SSE 11 13 6 7 1021.1 1021.1 0.0
05/01:30am 14.6 13.1 13.0 90 0.9 SSE 13 15 7 8 1021.2 1021.2 0.0
05/01:00am 15.0 13.6 13.4 90 0.9 S 13 17 7 9 1021.1 1021.1 0.0
05/12:30am 15.1 13.7 13.5 90 0.9 S 13 13 7 7 1021.2 1021.2 0.0
05/12:00am 15.1 14.1 13.3 89 1.0 SSE 11 13 6 7 1021.1 1021.1 0.0
 
Date/Time
WST
Temp
°C
App
Temp
°C
Dew
Point
Rel
Hum
%
Delta-T
°C
Wind Press
QNH
hPa
Press
MSL
hPa
Rain
since 9 am
mm
Dir
 
Spd
km/h
Gust
km/h
Spd
kts
Gust
kts
04/11:30pm 15.9 14.7 13.9 88 1.1 S 13 15 7 8 1021.3 1021.3 0.0
04/11:00pm 16.1 14.6 14.1 88 1.1 S 15 17 8 9 1021.3 1021.3 0.0
04/10:30pm 16.9 15.1 14.5 86 1.4 S 17 20 9 11 1021.5 1021.5 0.0
04/10:00pm 16.9 15.2 14.7 87 1.3 S 17 20 9 11 1021.6 1021.6 0.0
04/09:30pm 16.9 15.5 14.4 85 1.4 S 15 19 8 10 1021.6 1021.6 0.0
04/09:00pm 17.1 15.4 14.6 85 1.4 S 17 20 9 11 1021.6 1021.6 0.0
04/08:30pm 17.3 15.9 14.6 84 1.6 S 15 19 8 10 1021.5 1021.5 0.0
04/08:00pm 18.0 16.8 15.1 83 1.7 SSW 15 20 8 11 1021.4 1021.4 0.0
04/07:30pm 18.2 16.6 14.9 81 1.9 SSW 17 20 9 11 1021.2 1021.2 0.0
04/07:00pm 18.2 16.1 13.5 74 2.7 SSW 17 19 9 10 1021.0 1021.0 0.0
04/06:30pm 18.2 17.1 13.1 72 2.9 SW 11 13 6 7 1020.8 1020.8 0.0
04/06:00pm 18.9 17.9 12.2 65 3.7 SW 9 11 5 6 1020.6 1020.6 0.0
04/05:30pm 21.1 19.6 12.0 56 5.1 SW 11 13 6 7 1020.5 1020.5 0.0
04/05:00pm 22.6 20.2 10.1 45 6.8 SSW 13 17 7 9 1020.4 1020.4 0.0
04/04:30pm 23.6 20.7 9.6 41 7.6 SSW 15 20 8 11 1020.5 1020.5 0.0
04/04:00pm 23.6 20.4 12.0 48 6.6 SSW 20 24 11 13 1020.5 1020.5 0.0
04/03:30pm 24.1 21.0 12.1 47 6.8 SSW 20 24 11 13 1020.4 1020.4 0.0
04/03:00pm 23.8 20.4 12.4 48 6.5 SW 22 28 12 15 1020.4 1020.4 0.0
04/02:30pm 24.5 21.7 12.5 47 6.9 SSW 19 32 10 17 1020.4 1020.4 0.0
04/02:00pm 25.2 22.8 9.9 38 8.4 SE 13 17 7 9 1020.4 1020.4 0.0
04/01:30pm 25.1 22.2 9.8 38 8.4 SE 15 24 8 13 1020.5 1020.5 0.0
04/01:00pm 24.5 21.7 10.0 40 8.0 SE 15 22 8 12 1020.9 1020.9 0.0
04/12:30pm 24.4 21.5 11.0 43 7.5 SE 17 22 9 12 1021.4 1021.4 0.0
04/12:00pm 23.8 21.0 11.5 46 6.9 SSE 17 24 9 13 1021.7 1021.7 0.0
04/11:30am 23.3 20.2 11.7 48 6.5 SE 19 22 10 12 1022.0 1022.0 0.0
04/11:00am 22.8 20.0 12.7 53 5.8 SSE 19 24 10 13 1022.5 1022.5 0.0
04/10:30am 21.9 20.8 14.3 62 4.5 SE 13 19 7 10 1023.0 1022.9 0.0
04/10:00am 20.4 19.6 15.0 71 3.2 SSE 13 17 7 9 1023.1 1023.0 0.0
04/09:30am 18.6 17.8 15.1 80 2.0 SSE 13 19 7 10 1023.2 1023.1 0.0
04/09:00am 17.3 16.5 15.1 87 1.3 SSE 13 19 7 10 1023.0 1022.9 0.2
04/08:30am 15.8 14.7 14.3 91 0.9 SSE 13 15 7 8 1022.9 1022.8 0.2
04/08:00am 14.3 12.8 13.0 92 0.7 S 13 15 7 8 1022.5 1022.5 0.2
04/07:30am 12.6 10.9 11.3 92 0.7 SSE 11 13 6 7 1022.1 1022.1 0.0
04/07:00am 12.5 10.8 11.2 92 0.7 SSE 11 13 6 7 1021.8 1021.8 0.0
04/06:30am 12.7 11.4 11.3 91 0.7 SSE 9 11 5 6 1021.7 1021.7 0.0
04/06:00am 13.2 12.1 11.8 91 0.7 SSE 9 11 5 6 1021.6 1021.6 0.0
04/05:30am 13.7 12.4 12.4 92 0.7 SSE 11 13 6 7 1021.5 1021.5 0.0
04/05:00am 13.8 12.5 12.5 92 0.7 SSE 11 13 6 7 1021.6 1021.6 0.0
04/04:30am 14.1 12.9 12.7 91 0.8 S 11 13 6 7 1021.6 1021.6 0.0
04/04:00am 14.3 13.5 12.9 91 0.8 SSE 9 13 5 7 1021.7 1021.7 0.0
04/03:30am 14.7 13.7 13.4 92 0.7 SSE 11 15 6 8 1021.8 1021.8 0.0
04/03:00am 15.1 14.2 13.8 92 0.7 SSE 11 15 6 8 1021.9 1021.9 0.0
04/02:30am 15.3 14.5 14.0 92 0.7 SSE 11 13 6 7 1022.0 1022.0 0.0
04/02:00am 15.1 13.8 13.8 92 0.7 SSE 13 15 7 8 1022.1 1022.1 0.0
04/01:30am 14.9 13.9 13.4 91 0.8 SSE 11 15 6 8 1022.2 1022.2 0.0
04/01:00am 14.9 13.5 13.4 91 0.8 SSE 13 15 7 8 1022.3 1022.3 0.0
04/12:30am 15.2 14.3 13.6 90 0.9 SSE 11 13 6 7 1022.4 1022.4 0.0
04/12:00am 15.9 15.2 14.3 90 0.9 S 11 13 6 7 1022.2 1022.2 0.0
 
Date/Time
WST
Temp
°C
App
Temp
°C
Dew
Point
Rel
Hum
%
Delta-T
°C
Wind Press
QNH
hPa
Press
MSL
hPa
Rain
since 9 am
mm
Dir
 
Spd
km/h
Gust
km/h
Spd
kts
Gust
kts
03/11:30pm 16.6 15.8 15.0 90 0.9 S 13 17 7 9 1022.2 1022.2 0.0
03/11:00pm 16.9 16.1 15.1 89 1.0 S 13 17 7 9 1022.2 1022.2 0.0
03/10:30pm 17.2 16.1 15.4 89 1.1 S 15 19 8 10 1022.1 1022.1 0.0
03/10:00pm 17.3 16.2 15.3 88 1.2 S 15 19 8 10 1022.2 1022.2 0.0
03/09:30pm 17.4 15.8 15.0 86 1.4 S 17 20 9 11 1022.2 1022.2 0.0
03/09:00pm 17.4 16.2 15.0 86 1.4 S 15 19 8 10 1022.3 1022.3 0.0
03/08:30pm 18.0 16.5 15.3 84 1.6 SSW 17 19 9 10 1022.4 1022.4 0.0
03/08:00pm 18.1 16.6 15.2 83 1.7 SSW 17 20 9 11 1022.2 1022.2 0.0
03/07:30pm 18.1 16.4 14.8 81 1.9 SSW 17 20 9 11 1021.9 1021.9 0.0
03/07:00pm 17.8 16.5 13.7 77 2.3 SSW 13 15 7 8 1021.8 1021.8 0.0
03/06:30pm 18.5 16.9 12.9 70 3.1 SSW 13 19 7 10 1021.6 1021.6 0.0
03/06:00pm 19.2 17.1 12.5 65 3.7 SSW 15 17 8 9 1021.3 1021.3 0.0
03/05:30pm 20.7 18.6 11.3 55 5.2 SSW 13 17 7 9 1021.1 1021.1 0.0
03/05:00pm 22.5 20.1 10.0 45 6.8 SSW 13 19 7 10 1020.9 1020.9 0.0
03/04:30pm 23.3 19.9 7.8 37 8.2 SSW 15 20 8 11 1020.9 1020.9 0.0
03/04:00pm 23.4 19.0 7.5 36 8.3 SSW 20 26 11 14 1020.9 1020.9 0.0
03/03:30pm 23.7 19.9 9.7 41 7.6 SW 20 26 11 14 1020.9 1020.9 0.0
03/03:00pm 24.0 20.0 10.3 42 7.5 SW 22 26 12 14 1020.8 1020.8 0.0
03/02:30pm 24.6 21.4 10.1 40 8.0 SSW 17 26 9 14 1021.0 1021.0 0.0
03/02:00pm 25.4 22.2 5.1 27 10.3 SE 11 20 6 11 1021.1 1021.1 0.0
03/01:30pm 25.1 21.9 5.3 28 10.1 SE 11 17 6 9 1021.4 1021.4 0.0
03/01:00pm 24.7 21.4 6.4 31 9.4 SE 13 22 7 12 1021.6 1021.6 0.0
03/12:30pm 24.4 20.6 7.5 34 8.9 SE 17 22 9 12 1022.0 1022.0 0.0
03/12:00pm 23.8 20.2 8.2 37 8.3 SSE 17 24 9 13 1022.5 1022.5 0.0
03/11:30am 23.5 20.0 8.8 39 7.9 SE 17 24 9 13 1023.0 1022.9 0.0
03/11:00am 23.0 19.9 9.0 41 7.5 SE 15 20 8 11 1023.3 1023.2 0.0
03/10:30am 22.0 19.9 9.9 46 6.6 SE 11 17 6 9 1023.5 1023.4 0.0
03/10:00am 20.4 19.1 11.3 56 5.0 SE 9 13 5 7 1023.7 1023.6 0.0
03/09:30am 18.4 16.8 11.7 65 3.7 SSE 11 13 6 7 1023.6 1023.5 0.0
03/09:00am 16.6 15.8 12.9 79 2.1 S 9 13 5 7 1023.6 1023.5 0.0
03/08:30am 14.9 14.1 12.8 87 1.2 S 9 11 5 6 1023.3 1023.2 0.0
03/08:00am 13.1 11.9 11.5 90 0.8 SSE 9 9 5 5 1022.9 1022.8 0.0
03/07:30am 12.0 10.1 10.6 91 0.7 SE 11 11 6 6 1022.5 1022.5 0.0
03/07:00am 11.5 9.9 10.1 91 0.7 SE 9 9 5 5 1022.2 1022.2 0.0
03/06:30am 11.4 9.7 10.0 91 0.7 ESE 9 9 5 5 1022.0 1022.0 0.0
03/06:00am 11.1 9.4 9.7 91 0.7 ESE 9 11 5 6 1022.0 1022.0 0.0
03/05:30am 11.2 9.5 9.8 91 0.7 ESE 9 9 5 5 1021.7 1021.7 0.0
03/05:00am 11.1 8.9 9.5 90 0.8 ESE 11 11 6 6 1021.6 1021.6 0.0
03/04:30am 11.8 9.8 10.2 90 0.8 ESE 11 13 6 7 1021.7 1021.7 0.0
03/04:00am 12.5 10.8 11.1 91 0.7 SE 11 11 6 6 1021.7 1021.7 0.0
03/03:30am 12.1 10.2 10.5 90 0.8 ESE 11 13 6 7 1021.8 1021.8 0.0
03/03:00am 11.9 9.9 10.1 89 0.9 ESE 11 13 6 7 1021.8 1021.8 0.0
03/02:30am 12.3 10.4 10.5 89 0.9 ESE 11 13 6 7 1021.9 1021.9 0.0
03/02:00am 13.2 11.5 11.3 88 1.0 ESE 11 13 6 7 1022.2 1022.2 0.0
03/01:30am 14.1 13.1 12.3 89 1.0 SE 9 13 5 7 1022.4 1022.4 0.0
03/01:00am 13.6 12.1 11.8 89 1.0 ESE 11 13 6 7 1022.5 1022.5 0.0
03/12:30am 13.9 12.5 12.3 90 0.9 ESE 11 13 6 7 1022.9 1022.8 0.0
03/12:00am 13.9 12.5 12.3 90 0.9 ESE 11 11 6 6 1023.2 1023.1 0.0
 
Date/Time
WST
Temp
°C
App
Temp
°C
Dew
Point
Rel
Hum
%
Delta-T
°C
Wind Press
QNH
hPa
Press
MSL
hPa
Rain
since 9 am
mm
Dir
 
Spd
km/h
Gust
km/h
Spd
kts
Gust
kts
02/11:30pm 14.2 12.9 12.6 90 0.9 SE 11 13 6 7 1023.3 1023.2 0.0
02/11:00pm 13.9 12.4 11.9 88 1.1 SSE 11 11 6 6 1023.4 1023.3 0.0
02/10:30pm 14.3 12.5 12.0 86 1.2 SSE 13 15 7 8 1023.4 1023.3 0.0
02/10:00pm 15.0 12.9 12.3 84 1.5 SSE 15 17 8 9 1023.4 1023.3 0.0
02/09:30pm 15.7 13.6 12.5 81 1.8 SSE 15 19 8 10 1023.1 1023.0 0.0
02/09:00pm 15.3 12.9 11.3 77 2.1 S 15 19 8 10 1023.0 1022.9 0.0
02/08:30pm 16.2 13.9 11.8 75 2.4 S 15 17 8 9 1022.6 1022.6 0.0
02/08:00pm 15.9 14.2 11.1 73 2.6 SSW 11 15 6 8 1022.5 1022.5 0.0
02/07:30pm 16.3 14.6 12.5 78 2.1 SSW 13 15 7 8 1022.2 1022.2 0.0
02/07:00pm 16.3 15.3 13.4 83 1.6 SW 11 15 6 8 1021.9 1021.9 0.0
02/06:30pm 16.5 15.4 13.2 81 1.8 SW 11 13 6 7 1021.6 1021.6 0.0
02/06:00pm 16.9 15.6 11.4 70 3.0 WSW 9 11 5 6 1021.4 1021.4 0.0
02/05:30pm 19.0 17.4 11.6 62 4.1 WSW 11 13 6 7 1021.2 1021.2 0.0
02/05:00pm 20.5 18.8 12.5 60 4.5 W 13 17 7 9 1021.2 1021.2 0.0
02/04:30pm 21.6 19.4 10.7 50 6.0 W 13 17 7 9 1021.1 1021.1 0.0
02/04:00pm 20.9 18.5 11.3 54 5.3 WSW 15 19 8 10 1021.0 1021.0 0.0
02/03:30pm 22.5 21.5 12.2 52 5.8 W 9 11 5 6 1020.5 1020.5 0.0
02/03:00pm 21.7 20.4 12.5 56 5.2 WNW 11 13 6 7 1020.5 1020.5 0.0
02/02:30pm 21.1 20.0 13.0 60 4.6 NW 11 15 6 8 1020.6 1020.6 0.0
02/02:00pm 21.8 20.5 11.2 51 5.9 WNW 9 17 5 9 1021.1 1021.1 0.0
02/01:30pm 22.2 20.3 7.6 39 7.6 N 7 13 4 7 1021.2 1021.2 0.0
02/01:00pm 22.2 20.3 9.0 43 7.0 NNE 9 13 5 7 1021.2 1021.2 0.0
02/12:30pm 22.5 19.6 9.6 44 7.0 NE 15 20 8 11 1021.3 1021.3 0.0
02/12:00pm 22.3 19.5 8.4 41 7.3 ENE 13 17 7 9 1022.2 1022.2 0.0
02/11:30am 21.8 19.4 10.0 47 6.4 NE 13 19 7 10 1022.3 1022.3 0.0
02/11:00am 21.4 19.1 10.6 50 5.9 NE 13 15 7 8 1022.9 1022.8 0.0

Other Formats:

Comma delimited format used in spreadsheet applications
http://www.bom.gov.au/fwo/IDW60801/IDW60801.95402.axf

JavaScript Object Notation format (JSON) in row-major order
http://www.bom.gov.au/fwo/IDW60801/IDW60801.95402.json